createdAt,value
2016-11-13T19:40:59.705Z,-5
2016-11-13T19:41:59.771Z,-5.11
2016-11-13T19:42:59.852Z,-5.05
2016-11-13T19:43:59.647Z,-5.08
2016-11-13T19:44:59.646Z,-5.1
2016-11-13T19:45:59.604Z,-5.05
2016-11-13T19:46:59.584Z,-5.05
2016-11-13T19:47:59.574Z,-5.07
2016-11-13T19:48:59.573Z,-5.04
2016-11-13T19:49:59.578Z,-5
2016-11-13T19:50:59.587Z,-5.04
2016-11-13T19:51:59.539Z,-5.04
2016-11-13T19:52:59.558Z,-5.08
2016-11-13T19:53:59.553Z,-5.01
2016-11-13T19:54:59.551Z,-5.02
2016-11-13T19:55:59.561Z,-5.05
2016-11-13T19:56:59.568Z,-5.05
2016-11-13T19:57:59.478Z,-5.01
2016-11-13T19:58:59.477Z,-5.04
2016-11-13T19:59:59.489Z,-5.04
2016-11-13T20:00:59.503Z,-5.08
2016-11-13T20:01:59.478Z,-5.12
2016-11-13T20:02:59.708Z,-5.08
2016-11-13T20:03:59.444Z,-5.14
2016-11-13T20:04:59.461Z,-5.12
2016-11-13T20:05:59.476Z,-5.14
2016-11-13T20:06:59.474Z,-5.19
2016-11-13T20:07:59.341Z,-5.2
2016-11-13T20:08:59.314Z,-5.3
2016-11-13T20:09:59.634Z,-5.27
2016-11-13T20:10:59.401Z,-5.3
2016-11-13T20:11:59.269Z,-5.41
2016-11-13T20:12:59.283Z,-5.47
2016-11-13T20:13:59.274Z,-5.44
2016-11-13T20:14:59.256Z,-5.4
2016-11-13T20:15:59.113Z,-5.42
2016-11-13T20:16:59.102Z,-5.45
2016-11-13T20:17:59.099Z,-5.38
2016-11-13T20:18:59.087Z,-5.4
2016-11-13T20:19:58.960Z,-5.4
2016-11-13T20:20:58.917Z,-5.42
2016-11-13T20:21:59.491Z,-5.42
2016-11-13T20:22:58.898Z,-5.38
2016-11-13T20:23:58.871Z,-5.38
2016-11-13T20:24:58.923Z,-5.35
2016-11-13T20:25:58.823Z,-5.37
2016-11-13T20:27:13.693Z,-5.37
2016-11-13T20:27:58.797Z,-5.44
2016-11-13T20:28:58.772Z,-5.42
2016-11-13T20:29:58.752Z,-5.4
2016-11-13T20:30:58.742Z,-5.4
2016-11-13T20:31:58.756Z,-5.33
2016-11-13T20:32:58.703Z,-5.35
2016-11-13T20:33:58.672Z,-5.37
2016-11-13T20:34:58.655Z,-5.44
2016-11-13T20:35:58.638Z,-5.41
2016-11-13T20:36:58.616Z,-5.42
2016-11-13T20:37:58.671Z,-5.41
2016-11-13T20:38:58.624Z,-5.4
2016-11-13T20:39:58.563Z,-5.41
2016-11-13T20:40:58.544Z,-5.41
2016-11-13T20:41:58.520Z,-5.41
2016-11-13T20:42:58.533Z,-5.4
2016-11-13T20:43:58.523Z,-5.47
2016-11-13T20:44:58.462Z,-5.52
2016-11-13T20:45:58.447Z,-5.44
2016-11-13T20:46:58.426Z,-5.5
2016-11-13T20:47:58.397Z,-5.51
2016-11-13T20:48:58.389Z,-5.44
2016-11-13T20:49:58.363Z,-5.52
2016-11-13T20:50:58.337Z,-5.55
2016-11-13T20:51:58.319Z,-5.51
2016-11-13T20:52:58.298Z,-5.52
2016-11-13T20:53:58.285Z,-5.37
2016-11-13T20:54:58.276Z,-5.38
2016-11-13T20:55:58.241Z,-5.33
2016-11-13T20:56:58.232Z,-5.4
2016-11-13T20:57:58.210Z,-5.44
2016-11-13T20:58:58.190Z,-5.42
2016-11-13T20:59:58.170Z,-5.37
2016-11-13T21:00:58.147Z,-5.3
2016-11-13T21:01:58.139Z,-5.29
2016-11-13T21:02:58.106Z,-5.35
2016-11-13T21:03:58.093Z,-5.29
2016-11-13T21:04:58.499Z,-5.37
2016-11-13T21:05:58.055Z,-5.41
2016-11-13T21:06:58.093Z,-5.29
2016-11-13T21:07:58.027Z,-5.41
2016-11-13T21:08:58.025Z,-5.29
2016-11-13T21:09:57.972Z,-5.3
2016-11-13T21:10:57.967Z,-5.24
2016-11-13T21:11:57.952Z,-5.29
2016-11-13T21:12:57.925Z,-5.05
2016-11-13T21:14:12.987Z,-5
2016-11-13T21:14:58.297Z,-4.83
2016-11-13T21:15:58.217Z,-4.72
2016-11-13T21:16:58.216Z,-4.65
2016-11-13T21:17:57.815Z,-4.55
2016-11-13T21:18:57.793Z,-4.5
2016-11-13T21:19:57.792Z,-4.48
2016-11-13T21:20:58.128Z,-4.43
2016-11-13T21:21:57.743Z,-4.36
2016-11-13T21:22:57.743Z,-4.34
2016-11-13T21:23:57.698Z,-4.27
2016-11-13T21:24:57.687Z,-4.26
2016-11-13T21:25:57.900Z,-4.22
2016-11-13T21:26:57.968Z,-4.12
2016-11-13T21:27:57.651Z,-4.16
2016-11-13T21:28:57.970Z,-4.06
2016-11-13T21:29:57.597Z,-4.09
2016-11-13T21:30:57.587Z,-4.12
2016-11-13T21:31:57.552Z,-4
2016-11-13T21:32:57.525Z,-4.06
2016-11-13T21:33:57.553Z,-4.05
2016-11-13T21:34:57.515Z,-4
2016-11-13T21:35:57.481Z,-4.09
2016-11-13T21:36:57.465Z,-4
2016-11-13T21:37:57.457Z,-4.04
2016-11-13T21:38:57.425Z,-4.06
2016-11-13T21:39:57.404Z,-4.04
2016-11-13T21:40:57.383Z,-4.04
2016-11-13T21:41:57.386Z,-4.04
2016-11-13T21:42:57.337Z,-3.97
2016-11-13T21:43:57.331Z,-3.96
2016-11-13T21:44:57.613Z,-4.06
2016-11-13T21:45:57.349Z,-4
2016-11-13T21:46:57.361Z,-4
2016-11-13T21:47:57.295Z,-4.04
2016-11-13T21:48:57.305Z,-4
2016-11-13T21:49:57.370Z,-3.93
2016-11-13T21:50:57.282Z,-3.94
2016-11-13T21:51:57.228Z,-4.05
2016-11-13T21:52:57.230Z,-4.01
2016-11-13T21:53:57.688Z,-4.01
2016-11-13T21:54:57.249Z,-4.15
2016-11-13T21:55:57.258Z,-4.18
2016-11-13T21:56:57.318Z,-4.23
2016-11-13T21:57:57.126Z,-4.26
2016-11-13T21:58:57.137Z,-4.26
2016-11-13T21:59:57.147Z,-4.23
2016-11-13T22:00:57.156Z,-4.29
2016-11-13T22:01:57.162Z,-4.32
2016-11-13T22:02:57.282Z,-4.19
2016-11-13T22:03:57.185Z,-4.32
2016-11-13T22:04:57.077Z,-4.37
2016-11-13T22:05:57.089Z,-4.27
2016-11-13T22:06:57.103Z,-4.34
2016-11-13T22:07:57.062Z,-4.36
2016-11-13T22:08:56.915Z,-4.27
2016-11-13T22:09:56.903Z,-4.34
2016-11-13T22:10:57.261Z,-4.36
2016-11-13T22:11:56.894Z,-4.33
2016-11-13T22:12:56.876Z,-4.33
2016-11-13T22:13:56.752Z,-4.27
2016-11-13T22:14:56.731Z,-4.27
2016-11-13T22:15:56.707Z,-4.25
2016-11-13T22:16:56.707Z,-4.26
2016-11-13T22:17:56.679Z,-4.3
2016-11-13T22:18:56.677Z,-4.23
2016-11-13T22:19:56.642Z,-4.32
2016-11-13T22:20:56.611Z,-4.27
2016-11-13T22:21:56.687Z,-4.3
2016-11-13T22:22:56.583Z,-4.41
2016-11-13T22:23:56.559Z,-4.39
2016-11-13T22:24:56.556Z,-4.44
2016-11-13T22:25:56.531Z,-4.53
2016-11-13T22:26:56.509Z,-4.53
2016-11-13T22:27:56.480Z,-4.57
2016-11-13T22:28:56.462Z,-4.55
2016-11-13T22:29:56.440Z,-4.63
2016-11-13T22:30:56.441Z,-4.65
2016-11-13T22:31:56.404Z,-4.59
2016-11-13T22:32:56.412Z,-4.79
2016-11-13T22:33:56.368Z,-4.76
2016-11-13T22:34:56.357Z,-4.75
2016-11-13T22:35:56.687Z,-4.76
2016-11-13T22:36:56.314Z,-4.83
2016-11-13T22:37:56.653Z,-4.87
2016-11-13T22:38:56.282Z,-4.87
2016-11-13T22:39:56.265Z,-4.86
2016-11-13T22:40:56.239Z,-4.84
2016-11-13T22:41:56.216Z,-4.87
2016-11-13T22:42:56.211Z,-4.92
2016-11-13T22:43:56.584Z,-4.94
2016-11-13T22:44:56.225Z,-4.92
2016-11-13T22:45:56.145Z,-4.94
2016-11-13T22:46:56.121Z,-4.97
2016-11-13T22:47:56.425Z,-5
2016-11-13T22:48:56.081Z,-5.02
2016-11-13T22:49:56.067Z,-5.02
2016-11-13T22:50:56.046Z,-5.04
2016-11-13T22:51:56.068Z,-5.11
2016-11-13T22:52:56.012Z,-5.11
2016-11-13T22:53:55.989Z,-5.14
2016-11-13T22:54:55.978Z,-5.1
2016-11-13T22:55:55.958Z,-5.11
2016-11-13T22:56:55.933Z,-5.14
2016-11-13T22:57:55.919Z,-5.2
2016-11-13T22:58:55.897Z,-5.19
2016-11-13T22:59:55.873Z,-5.2
2016-11-13T23:00:55.858Z,-5.23
2016-11-13T23:01:56.156Z,-5.22
2016-11-13T23:02:55.830Z,-5.24
2016-11-13T23:03:55.799Z,-5.22
2016-11-13T23:04:55.790Z,-5.26
2016-11-13T23:05:55.778Z,-5.27
2016-11-13T23:06:55.735Z,-5.3
2016-11-13T23:07:55.723Z,-5.27
2016-11-13T23:08:55.733Z,-5.31
2016-11-13T23:09:55.678Z,-5.24
2016-11-13T23:10:55.662Z,-5.3
2016-11-13T23:11:55.653Z,-5.33
2016-11-13T23:12:55.627Z,-5.35
2016-11-13T23:13:55.607Z,-5.41
2016-11-13T23:14:55.585Z,-5.29
2016-11-13T23:15:55.572Z,-5.4
2016-11-13T23:16:55.544Z,-5.42
2016-11-13T23:17:55.540Z,-5.37
2016-11-13T23:18:55.821Z,-5.4
2016-11-13T23:19:55.495Z,-5.4
2016-11-13T23:20:55.472Z,-5.44
2016-11-13T23:21:55.446Z,-5.4
2016-11-13T23:22:55.425Z,-5.4
2016-11-13T23:23:55.416Z,-5.45
2016-11-13T23:24:55.554Z,-5.5
2016-11-13T23:25:55.397Z,-5.47
2016-11-13T23:26:55.360Z,-5.52
2016-11-13T23:27:55.359Z,-5.56
2016-11-13T23:28:55.322Z,-5.5
2016-11-13T23:29:55.293Z,-5.51
2016-11-13T23:30:55.284Z,-5.51
2016-11-13T23:31:55.255Z,-5.56
2016-11-13T23:32:55.253Z,-5.6
2016-11-13T23:33:55.220Z,-5.45
2016-11-13T23:34:55.197Z,-5.51
2016-11-13T23:35:55.185Z,-5.58
2016-11-13T23:36:55.166Z,-5.59
2016-11-13T23:37:55.137Z,-5.55
2016-11-13T23:38:55.123Z,-5.56
2016-11-13T23:39:55.127Z,-5.6
2016-11-13T23:40:55.082Z,-5.62
2016-11-13T23:41:55.070Z,-5.6
2016-11-13T23:42:55.048Z,-5.6
2016-11-13T23:43:55.045Z,-5.63
2016-11-13T23:44:55.007Z,-5.62
2016-11-13T23:45:54.983Z,-5.68
2016-11-13T23:46:54.983Z,-5.68
2016-11-13T23:47:54.943Z,-5.69
2016-11-13T23:48:54.922Z,-5.7
2016-11-13T23:49:54.924Z,-5.7
2016-11-13T23:50:54.893Z,-5.81
2016-11-13T23:51:54.872Z,-5.79
2016-11-13T23:52:54.860Z,-5.7
2016-11-13T23:53:54.822Z,-5.8
2016-11-13T23:55:54.796Z,-5.8
2016-11-13T23:56:54.803Z,-5.76
2016-11-13T23:57:54.781Z,-5.79
2016-11-13T23:58:54.730Z,-5.81
2016-11-13T23:59:54.719Z,-5.79
